Time;durP1;ratioP1;P1;durP2;ratioP2;P2;SDS_P1;SDS_P2;PMS_P1;PMS_P2;Temp;Humidity;BMP_temperature;BMP_pressure;BME280_temperature;BME280_humidity;BME280_pressure;Samples;Min_cycle;Max_cycle;Signal;HPM_P1;HPM_P2
2023/02/12 00:01:12;;;;;;;37.57;25.03;;;;;;;3.42;100.00;98129.50;6188678;23;20004;-88
2023/02/12 00:03:39;;;;;;;34.20;23.07;;;;;;;3.44;100.00;98134.63;6188199;23;20016;-87
2023/02/12 00:06:05;;;;;;;36.17;23.97;;;;;;;3.40;100.00;98128.72;6187528;23;20019;-86
2023/02/12 00:08:37;;;;;;;31.60;22.50;;;;;;;3.41;100.00;98130.38;6216667;23;20008;-90
2023/02/12 00:11:13;;;;;;;40.23;23.80;;;;;;;3.36;100.00;98124.56;6192702;23;20035;-90
2023/02/12 00:13:51;;;;;;;33.70;23.43;;;;;;;3.38;100.00;98129.69;6193227;23;20016;-90
2023/02/12 00:16:35;;;;;;;36.53;24.17;;;;;;;3.30;100.00;98130.03;6222800;23;20099;-90
2023/02/12 00:19:06;;;;;;;36.70;23.43;;;;;;;3.33;100.00;98116.06;6221565;23;20016;-90
2023/02/12 00:21:35;;;;;;;34.03;24.03;;;;;;;3.35;100.00;98124.63;6199770;23;20027;-89
2023/02/12 00:24:03;;;;;;;38.40;24.30;;;;;;;3.30;100.00;98123.06;6193768;23;20023;-91
2023/02/12 00:26:51;;;;;;;35.97;25.17;;;;;;;3.27;100.00;98122.38;6195810;23;20019;-90
2023/02/12 00:29:21;;;;;;;34.93;23.40;;;;;;;3.28;100.00;98113.63;6222311;23;20016;-90
2023/02/12 00:31:50;;;;;;;35.70;22.10;;;;;;;3.25;100.00;98118.97;6213570;22;20014;-94
2023/02/12 00:34:23;;;;;;;34.87;23.47;;;;;;;3.27;100.00;98118.00;6211030;22;20012;-90
2023/02/12 00:36:53;;;;;;;;;;;;;;;3.28;100.00;98126.63;6224462;23;20134;-90
2023/02/12 00:39:36;;;;;;;;;;;;;;;;;;;;;
2023/02/12 00:42:05;;;;;;;38.20;24.47;;;;;;;3.25;100.00;98134.56;6231215;23;20075;-89
2023/02/12 00:44:53;;;;;;;33.43;21.90;;;;;;;3.20;100.00;98144.34;6180004;23;20019;-89
2023/02/12 00:47:19;;;;;;;32.67;21.50;;;;;;;3.17;100.00;98139.28;6197912;23;20008;-90
2023/02/12 00:50:16;;;;;;;35.13;24.00;;;;;;;3.21;100.00;98146.88;6222667;23;20012;-90
2023/02/12 00:52:42;;;;;;;34.20;23.50;;;;;;;3.21;100.00;98140.81;6196900;23;20008;-91
2023/02/12 00:55:08;;;;;;;41.87;25.20;;;;;;;3.16;100.00;98138.44;6221183;23;20455;-90
2023/02/12 00:57:34;;;;;;;39.20;25.23;;;;;;;3.14;100.00;98142.84;6196869;23;20000;-90
2023/02/12 01:00:00;;;;;;;38.87;27.10;;;;;;;3.16;100.00;98124.59;6196423;23;20200;-90
2023/02/12 01:02:26;;;;;;;38.20;25.90;;;;;;;3.10;100.00;98137.84;6196569;23;20008;-89
2023/02/12 01:04:54;;;;;;;36.53;25.53;;;;;;;3.09;100.00;98141.38;6221981;23;20038;-90
2023/02/12 01:07:25;;;;;;;37.73;25.63;;;;;;;3.06;100.00;98130.19;6221257;23;20462;-90
2023/02/12 01:09:51;;;;;;;38.30;25.40;;;;;;;3.10;100.00;98140.47;6196919;23;20114;-89
2023/02/12 01:12:17;;;;;;;37.60;27.03;;;;;;;3.05;100.00;98145.84;6196745;23;20510;-90
2023/02/12 01:14:43;;;;;;;41.27;25.73;;;;;;;3.11;100.00;98144.75;6197084;23;20605;-90
2023/02/12 01:17:09;;;;;;;42.27;28.03;;;;;;;3.04;100.00;98147.59;6197815;23;20024;-90
2023/02/12 01:19:35;;;;;;;40.27;26.73;;;;;;;3.10;100.00;98146.50;6197672;23;20154;-89
2023/02/12 01:22:01;;;;;;;40.93;27.23;;;;;;;3.10;100.00;98138.69;6198646;23;20000;-89
2023/02/12 01:24:39;;;;;;;44.17;27.27;;;;;;;3.05;100.00;98145.84;6198899;23;20016;-89
2023/02/12 01:27:04;;;;;;;44.80;28.97;;;;;;;3.05;100.00;98144.09;6215382;23;20016;-92
2023/02/12 01:29:30;;;;;;;52.27;30.67;;;;;;;3.10;100.00;98149.09;6202749;23;20008;-90
2023/02/12 01:31:56;;;;;;;47.07;30.67;;;;;;;3.12;100.00;98143.81;6197830;23;20431;-90
2023/02/12 01:34:22;;;;;;;44.93;30.10;;;;;;;3.15;100.00;98148.88;6196915;23;20043;-90
2023/02/12 01:37:29;;;;;;;44.00;28.03;;;;;;;3.13;100.00;98143.75;6196187;23;20054;-89
2023/02/12 01:39:54;;;;;;;47.63;28.10;;;;;;;3.10;100.00;98150.84;6194635;23;20008;-86
2023/02/12 01:42:54;;;;;;;45.23;29.90;;;;;;;3.13;100.00;98155.94;6192191;23;20065;-88
2023/02/12 01:45:35;;;;;;;44.07;29.00;;;;;;;3.06;100.00;98150.16;6227217;23;20016;-87
2023/02/12 01:48:01;;;;;;;49.90;32.07;;;;;;;3.05;100.00;98141.50;6199882;23;20016;-88
2023/02/12 01:50:27;;;;;;;50.13;30.57;;;;;;;3.00;100.00;98143.44;6211130;22;20000;-91
2023/02/12 01:52:56;;;;;;;49.03;31.30;;;;;;;3.00;100.00;98146.03;6217764;22;20039;-88
2023/02/12 01:55:23;;;;;;;50.53;29.50;;;;;;;2.90;100.00;98133.50;6190692;23;20015;-88
2023/02/12 01:57:49;;;;;;;43.73;30.40;;;;;;;2.86;100.00;98143.19;6189716;23;20114;-88
2023/02/12 02:00:19;;;;;;;54.13;32.33;;;;;;;2.84;100.00;98142.41;6189544;23;20066;-88
2023/02/12 02:03:00;;;;;;;51.33;34.70;;;;;;;2.88;100.00;98151.75;6189741;23;20004;-88
2023/02/12 02:05:55;;;;;;;50.97;33.57;;;;;;;2.83;100.00;98138.97;6189663;23;20022;-88
2023/02/12 02:08:26;;;;;;;49.85;31.20;;;;;;;2.90;100.00;98139.56;6176698;23;20012;-87
2023/02/12 02:10:52;;;;;;;49.07;32.17;;;;;;;2.90;100.00;98136.09;6188819;23;20012;-88
2023/02/12 02:16:16;;;;;;;51.97;33.40;;;;;;;2.84;100.00;98139.81;6221131;23;20012;-88
2023/02/12 02:18:55;;;;;;;48.50;33.90;;;;;;;2.91;100.00;98143.00;6192149;23;20016;-89
2023/02/12 02:21:42;;;;;;;54.40;34.20;;;;;;;2.80;100.00;98133.06;6189876;23;20097;-88
2023/02/12 02:24:26;;;;;;;49.70;33.30;;;;;;;2.77;100.00;98135.78;6190118;23;20048;-90
2023/02/12 02:27:09;;;;;;;;;;;;;;;2.77;100.00;98134.03;6192050;23;20694;-88
2023/02/12 02:29:47;;;;;;;50.60;31.43;;;;;;;2.72;100.00;98137.75;6215413;23;19907;-87
2023/02/12 02:32:22;;;;;;;50.33;32.53;;;;;;;2.60;100.00;98137.31;6189347;23;20115;-87
2023/02/12 02:35:26;;;;;;;50.27;33.00;;;;;;;2.55;100.00;98128.03;6190196;23;20435;-88
2023/02/12 02:38:07;;;;;;;53.55;33.13;;;;;;;2.53;100.00;98122.91;6190554;23;20020;-88
2023/02/12 02:40:46;;;;;;;57.83;34.50;;;;;;;2.64;100.00;98121.59;6190040;23;20012;-88
2023/02/12 02:43:22;;;;;;;57.10;34.83;;;;;;;2.64;100.00;98121.59;6190309;23;20423;-87
2023/02/12 02:45:58;;;;;;;55.10;34.53;;;;;;;2.60;100.00;98124.31;6189466;23;20046;-88
2023/02/12 02:48:31;;;;;;;55.63;34.03;;;;;;;2.55;100.00;98126.28;6190875;23;20015;-87
2023/02/12 02:51:03;;;;;;;55.33;35.13;;;;;;;2.60;100.00;98119.13;6189450;23;20011;-88
2023/02/12 02:54:10;;;;;;;59.77;35.70;;;;;;;2.54;100.00;98121.13;6189752;23;20023;-89
2023/02/12 02:56:40;;;;;;;59.40;36.67;;;;;;;2.53;100.00;98128.09;6133534;23;20077;-88
2023/02/12 02:59:15;;;;;;;64.43;36.83;;;;;;;2.55;100.00;98128.88;6214236;23;20564;-88
2023/02/12 03:02:04;;;;;;;57.43;35.63;;;;;;;2.64;100.00;98122.44;6191029;23;20423;-88
2023/02/12 03:04:35;;;;;;;62.40;38.90;;;;;;;2.70;100.00;98118.75;6192537;23;20016;-88
2023/02/12 03:07:10;;;;;;;62.50;38.60;;;;;;;2.73;100.00;98116.88;6192541;23;20628;-87
2023/02/12 03:09:44;;;;;;;61.07;38.83;;;;;;;2.75;100.00;98125.47;6198453;23;20427;-89
2023/02/12 03:12:25;;;;;;;59.80;38.53;;;;;;;2.73;100.00;98134.22;6202007;23;20427;-88
2023/02/12 03:15:02;;;;;;;58.70;38.53;;;;;;;2.67;100.00;98130.13;6207664;23;20012;-87
2023/02/12 03:17:36;;;;;;;59.63;37.53;;;;;;;2.66;100.00;98138.00;6199571;23;20702;-88
2023/02/12 03:20:09;;;;;;;61.27;38.00;;;;;;;2.67;100.00;98139.66;6194367;23;20024;-88
2023/02/12 03:22:42;;;;;;;50.95;30.15;;;;;;;2.70;100.00;98142.13;6192841;23;20438;-87
2023/02/12 03:25:13;;;;;;;55.92;36.90;;;;;;;2.71;100.00;98143.81;6192726;23;20012;-88
2023/02/12 03:28:27;;;;;;;63.40;37.43;;;;;;;2.73;100.00;98132.47;6193151;23;20431;-87
2023/02/12 03:31:17;;;;;;;53.97;36.10;;;;;;;2.77;100.00;98147.00;6181421;23;20016;-87
2023/02/12 03:33:59;;;;;;;53.07;35.57;;;;;;;2.78;100.00;98147.84;6193126;23;20012;-88
2023/02/12 03:36:56;;;;;;;55.63;36.17;;;;;;;2.78;100.00;98140.94;6192351;23;20428;-88
2023/02/12 03:39:22;;;;;;;55.80;35.13;;;;;;;2.76;100.00;98145.31;6211916;23;20016;-88
2023/02/12 03:42:15;;;;;;;57.13;36.63;;;;;;;2.73;100.00;98142.00;6190970;23;20070;-88
2023/02/12 03:45:00;;;;;;;52.70;35.87;;;;;;;2.66;100.00;98150.97;6217124;23;20019;-88
2023/02/12 03:48:04;;;;;;;55.03;34.57;;;;;;;2.73;100.00;98153.25;6191983;23;20031;-88
2023/02/12 03:50:37;;;;;;;51.22;34.03;;;;;;;2.76;100.00;98158.31;6192195;23;20050;-88
2023/02/12 03:53:04;;;;;;;59.25;36.38;;;;;;;2.71;100.00;98159.41;6191385;23;20012;-88
2023/02/12 03:55:42;;;;;;;51.67;34.23;;;;;;;2.76;100.00;98157.47;6215219;23;20451;-88
2023/02/12 03:58:13;;;;;;;50.33;35.13;;;;;;;2.76;100.00;98160.91;6192272;23;20012;-88
2023/02/12 04:00:39;;;;;;;53.00;35.00;;;;;;;2.77;100.00;98166.94;6191275;23;20050;-88
2023/02/12 04:03:20;;;;;;;56.37;35.63;;;;;;;2.72;100.00;98158.53;6191140;23;20477;-87
2023/02/12 04:05:45;;;;;;;49.57;33.40;;;;;;;2.72;100.00;98161.13;6190305;23;20023;-88
2023/02/12 04:08:15;;;;;;;55.23;36.53;;;;;;;2.78;100.00;98166.03;6190022;23;20008;-88
2023/02/12 04:11:22;;;;;;;55.77;36.43;;;;;;;2.75;100.00;98163.56;6187483;23;20020;-89
2023/02/12 04:14:10;;;;;;;55.50;35.40;;;;;;;2.72;100.00;98174.94;6189650;23;20031;-88
2023/02/12 04:16:47;;;;;;;51.93;36.13;;;;;;;2.68;100.00;98178.56;6189522;23;20016;-88
2023/02/12 04:19:47;;;;;;;55.80;36.37;;;;;;;2.65;100.00;98172.63;6189774;23;20023;-88
2023/02/12 04:22:29;;;;;;;55.17;36.17;;;;;;;2.59;100.00;98166.81;6189136;23;20012;-88
2023/02/12 04:24:54;;;;;;;59.47;35.83;;;;;;;2.60;100.00;98175.44;6192922;23;20095;-88
2023/02/12 04:27:38;;;;;;;57.07;36.57;;;;;;;2.64;100.00;98170.97;6191787;23;20054;-88
2023/02/12 04:30:28;;;;;;;58.43;38.57;;;;;;;2.54;100.00;98176.53;6213801;22;20004;-90
2023/02/12 04:33:04;;;;;;;55.10;35.50;;;;;;;2.56;100.00;98179.06;6206016;23;20030;-88
2023/02/12 04:35:58;;;;;;;59.10;36.87;;;;;;;2.60;100.00;98186.66;6189572;23;20505;-88
2023/02/12 04:38:29;;;;;;;56.65;36.72;;;;;;;2.62;100.00;98180.59;6213716;23;20012;-88
2023/02/12 04:41:10;;;;;;;63.97;41.17;;;;;;;2.68;100.00;98183.75;6188473;23;20016;-88
2023/02/12 04:43:36;;;;;;;70.90;46.73;;;;;;;2.69;100.00;98188.06;6189157;23;20012;-88
2023/02/12 04:46:04;;;;;;;67.30;40.10;;;;;;;2.69;100.00;98190.66;6188224;23;20016;-88
2023/02/12 04:48:30;;;;;;;66.00;39.80;;;;;;;2.68;100.00;98178.56;6189076;23;20019;-88
2023/02/12 04:50:57;;;;;;;61.13;39.40;;;;;;;2.68;100.00;98180.31;6188711;23;20016;-88
2023/02/12 04:53:22;;;;;;;59.73;39.40;;;;;;;2.67;100.00;98184.66;6197458;23;20015;-88
2023/02/12 04:55:49;;;;;;;81.03;49.70;;;;;;;2.65;100.00;98185.63;6202976;23;20517;-88
2023/02/12 04:58:16;;;;;;;81.97;50.43;;;;;;;2.68;100.00;98185.50;6191448;23;20012;-88
2023/02/12 05:00:41;;;;;;;93.57;56.43;;;;;;;2.68;100.00;98177.72;6215900;23;20009;-88
2023/02/12 05:03:07;;;;;;;143.50;88.37;;;;;;;2.71;100.00;98182.78;6189929;23;20008;-89
2023/02/12 05:05:33;;;;;;;110.33;69.77;;;;;;;2.67;100.00;98181.22;6189389;23;20026;-87
2023/02/12 05:07:59;;;;;;;80.90;53.50;;;;;;;2.66;100.00;98182.97;6214566;23;20320;-86
2023/02/12 05:10:25;;;;;;;76.13;46.77;;;;;;;2.66;100.00;98189.94;6189302;23;20016;-89
2023/02/12 05:12:52;;;;;;;63.33;42.77;;;;;;;2.68;100.00;98182.91;6191314;23;20016;-87
2023/02/12 05:15:19;;;;;;;63.63;41.53;;;;;;;2.67;100.00;98179.47;6196028;23;20016;-88
2023/02/12 05:17:45;;;;;;;64.23;41.13;;;;;;;2.68;100.00;98183.75;6192714;23;20011;-88
2023/02/12 05:20:13;;;;;;;65.97;42.10;;;;;;;2.64;100.00;98181.34;6192099;23;20042;-88
2023/02/12 05:22:39;;;;;;;62.27;38.73;;;;;;;2.69;100.00;98182.03;6190423;23;20121;-87
2023/02/12 05:25:16;;;;;;;60.20;38.73;;;;;;;2.64;100.00;98191.75;6192355;23;20094;-87
2023/02/12 05:27:41;;;;;;;65.17;40.50;;;;;;;2.62;100.00;98183.19;6190901;23;20044;-88
2023/02/12 05:30:08;;;;;;;64.07;40.73;;;;;;;2.65;100.00;98186.50;6190726;23;20458;-87
2023/02/12 05:32:34;;;;;;;61.97;39.23;;;;;;;2.59;100.00;98185.00;6190340;23;20019;-87
2023/02/12 05:35:06;;;;;;;64.67;40.00;;;;;;;2.65;100.00;98186.50;6190236;23;20008;-87
2023/02/12 05:37:35;;;;;;;62.53;39.73;;;;;;;2.70;100.00;98178.50;6190597;23;20016;-87
2023/02/12 05:40:02;;;;;;;63.57;40.47;;;;;;;2.70;100.00;98194.09;6190292;23;20044;-87
2023/02/12 05:42:28;;;;;;;67.63;40.77;;;;;;;2.69;100.00;98189.81;6208593;22;20076;-89
2023/02/12 05:45:02;;;;;;;64.77;41.17;;;;;;;2.71;100.00;98190.59;6190895;23;20015;-88
2023/02/12 05:47:28;;;;;;;63.97;40.00;;;;;;;2.73;100.00;98192.22;6191354;23;20016;-87
2023/02/12 05:49:53;;;;;;;69.17;42.80;;;;;;;2.75;100.00;98194.75;6217547;23;20023;-87
2023/02/12 05:52:19;;;;;;;66.47;40.70;;;;;;;2.75;100.00;98195.59;6190372;23;20012;-87
2023/02/12 05:54:49;;;;;;;63.03;39.73;;;;;;;2.79;100.00;98196.31;6216935;23;20050;-87
2023/02/12 05:57:14;;;;;;;62.97;41.00;;;;;;;2.78;100.00;98190.28;6193369;23;20012;-87
2023/02/12 05:59:40;;;;;;;69.57;43.13;;;;;;;2.73;100.00;98188.78;6194071;23;20405;-88
2023/02/12 06:02:06;;;;;;;69.33;42.63;;;;;;;2.76;100.00;98191.25;6193649;23;20004;-88
2023/02/12 06:04:44;;;;;;;76.40;43.13;;;;;;;2.75;100.00;98187.81;6193149;23;20012;-88
2023/02/12 06:07:09;;;;;;;69.10;45.00;;;;;;;2.70;100.00;98191.50;6216780;23;20019;-87
2023/02/12 06:09:36;;;;;;;76.20;44.07;;;;;;;2.63;100.00;98188.31;6189412;23;20628;-88
2023/02/12 06:12:02;;;;;;;80.20;44.93;;;;;;;2.62;100.00;98183.19;6189989;23;20012;-88
2023/02/12 06:14:34;;;;;;;80.43;46.57;;;;;;;2.65;100.00;98193.41;6190514;23;20016;-87
2023/02/12 06:17:12;;;;;;;78.23;46.77;;;;;;;2.62;100.00;98191.81;6190191;23;20018;-88
2023/02/12 06:19:54;;;;;;;77.33;46.17;;;;;;;2.68;100.00;98195.91;6190536;23;20024;-88
2023/02/12 06:22:20;;;;;;;81.60;46.37;;;;;;;2.60;100.00;98197.06;6189275;23;20057;-88
2023/02/12 06:24:46;;;;;;;76.83;45.10;;;;;;;2.66;100.00;98198.56;6203963;23;20016;-88
2023/02/12 06:27:12;;;;;;;80.23;45.90;;;;;;;2.68;100.00;98198.50;6192519;23;20019;-88
2023/02/12 06:29:37;;;;;;;86.67;46.33;;;;;;;2.64;100.00;98196.94;6215076;23;20030;-87
2023/02/12 06:32:12;;;;;;;83.10;47.27;;;;;;;2.72;100.00;98202.69;6190158;23;20091;-87
2023/02/12 06:34:38;;;;;;;82.83;47.60;;;;;;;2.71;100.00;98206.16;6190709;23;20427;-88
2023/02/12 06:37:04;;;;;;;86.73;47.60;;;;;;;2.66;100.00;98206.38;6190281;23;20026;-87
2023/02/12 06:39:44;;;;;;;84.73;48.13;;;;;;;2.67;100.00;98209.81;6190345;23;20016;-87
2023/02/12 06:42:12;;;;;;;93.30;49.87;;;;;;;2.57;100.00;98199.78;6218103;23;20043;-87
2023/02/12 06:44:37;;;;;;;101.30;56.23;;;;;;;2.66;100.00;98208.97;6189607;23;20213;-88
2023/02/12 06:47:08;;;;;;;96.70;54.13;;;;;;;2.70;100.00;98215.72;6215874;23;20016;-87
2023/02/12 06:49:34;;;;;;;96.13;53.40;;;;;;;2.69;100.00;98211.44;6191093;23;20027;-88
2023/02/12 06:52:00;;;;;;;89.43;47.50;;;;;;;2.69;100.00;98219.22;6189248;23;20016;-87
2023/02/12 06:54:26;;;;;;;93.07;49.83;;;;;;;2.68;100.00;98214.94;6190006;23;20451;-87
2023/02/12 06:56:52;;;;;;;90.00;48.23;;;;;;;2.62;100.00;98220.38;6190486;23;20027;-87
2023/02/12 06:59:17;;;;;;;91.93;49.33;;;;;;;2.65;100.00;98214.19;6190912;23;20011;-88
2023/02/12 07:01:44;;;;;;;88.40;49.33;;;;;;;2.65;100.00;98220.28;6190763;23;20012;-87
2023/02/12 07:04:10;;;;;;;96.47;50.67;;;;;;;2.68;100.00;98225.31;6192708;23;20008;-87
2023/02/12 07:06:36;;;;;;;96.83;50.07;;;;;;;2.68;100.00;98230.50;6198252;23;20079;-89
2023/02/12 07:09:03;;;;;;;109.97;58.23;;;;;;;2.67;100.00;98228.81;6219565;22;20055;-90
2023/02/12 07:11:32;;;;;;;97.33;51.00;;;;;;;2.71;100.00;98226.94;6197015;23;20720;-87
2023/02/12 07:14:02;;;;;;;91.30;50.13;;;;;;;2.71;100.00;98229.56;6189469;23;20506;-87
2023/02/12 07:16:27;;;;;;;93.53;50.17;;;;;;;2.70;100.00;98228.72;6197156;23;20352;-86
2023/02/12 07:18:59;;;;;;;90.43;50.90;;;;;;;2.66;100.00;98231.50;6192642;23;20515;-87
2023/02/12 07:21:25;;;;;;;92.17;52.23;;;;;;;2.72;100.00;98237.31;6189816;23;20090;-87
2023/02/12 07:23:52;;;;;;;91.10;48.30;;;;;;;2.90;100.00;98232.25;6189702;23;20019;-87
2023/02/12 07:26:19;;;;;;;93.87;48.73;;;;;;;2.99;100.00;98232.72;6189591;23;20020;-87
2023/02/12 07:28:45;;;;;;;90.67;49.73;;;;;;;3.02;100.00;98226.56;6189206;23;20040;-87
2023/02/12 07:31:30;;;;;;;90.60;49.80;;;;;;;3.13;100.00;98220.91;6187633;23;20066;-87
2023/02/12 07:33:59;;;;;;;86.97;48.33;;;;;;;3.12;100.00;98229.59;6218148;23;20012;-87
2023/02/12 07:36:27;;;;;;;90.93;47.90;;;;;;;3.14;100.00;98217.41;6189631;23;20019;-88
2023/02/12 07:38:54;;;;;;;80.07;48.50;;;;;;;3.05;100.00;98229.88;6190017;23;20012;-88
2023/02/12 07:41:25;;;;;;;78.73;45.67;;;;;;;3.01;100.00;98230.91;6189110;23;20012;-88
2023/02/12 07:43:56;;;;;;;83.67;45.80;;;;;;;3.05;100.00;98229.88;6214968;23;20020;-87
2023/02/12 07:46:30;;;;;;;83.53;45.70;;;;;;;3.03;100.00;98228.25;6199070;23;20027;-89
2023/02/12 07:48:58;;;;;;;85.00;48.40;;;;;;;3.10;100.00;98232.28;6201331;23;20375;-87
2023/02/12 07:51:25;;;;;;;92.07;53.63;;;;;;;3.05;100.00;98234.22;6189366;23;20016;-87
2023/02/12 07:53:52;;;;;;;81.13;45.77;;;;;;;3.13;100.00;98239.94;6189716;23;20032;-87
2023/02/12 07:56:20;;;;;;;83.07;45.17;;;;;;;3.18;100.00;98229.34;6189549;23;20131;-87
2023/02/12 07:58:49;;;;;;;82.10;46.10;;;;;;;3.19;100.00;98231.06;6189421;23;20061;-87
2023/02/12 08:01:19;;;;;;;86.00;50.37;;;;;;;3.14;100.00;98233.84;6189261;23;20041;-87
2023/02/12 08:03:49;;;;;;;85.60;48.30;;;;;;;3.24;100.00;98226.50;6195543;23;20040;-90
2023/02/12 08:06:18;;;;;;;81.83;45.97;;;;;;;3.27;100.00;98228.97;6201873;23;20016;-87
2023/02/12 08:08:45;;;;;;;87.60;46.07;;;;;;;3.26;100.00;98238.53;6200920;23;20324;-87
2023/02/12 08:11:12;;;;;;;82.70;45.70;;;;;;;3.37;100.00;98232.88;6224685;23;20012;-87
2023/02/12 08:13:38;;;;;;;90.07;49.73;;;;;;;3.39;100.00;98244.06;6192571;23;20466;-87
2023/02/12 08:16:07;;;;;;;89.83;51.03;;;;;;;3.48;100.00;98241.03;6190607;23;20090;-87
2023/02/12 08:18:42;;;;;;;88.83;49.30;;;;;;;3.39;100.00;98241.47;6190126;23;20069;-87
2023/02/12 08:21:20;;;;;;;75.53;44.07;;;;;;;3.61;100.00;98243.13;6190578;23;20020;-90
2023/02/12 08:23:49;;;;;;;83.30;46.23;;;;;;;3.55;100.00;98241.63;6190489;23;20012;-87
2023/02/12 08:26:32;;;;;;;83.53;46.37;;;;;;;3.47;100.00;98241.97;6191626;23;20336;-88
2023/02/12 08:29:04;;;;;;;80.82;46.25;;;;;;;3.58;100.00;98240.66;6192130;23;20024;-87
2023/02/12 08:31:33;;;;;;;78.00;46.20;;;;;;;3.71;100.00;98244.41;6189583;23;20023;-87
2023/02/12 08:34:17;;;;;;;81.27;45.33;;;;;;;3.71;100.00;98239.22;6190413;23;20392;-87
2023/02/12 08:36:46;;;;;;;78.13;43.50;;;;;;;3.59;100.00;98243.22;6215664;23;20501;-88
2023/02/12 08:39:23;;;;;;;87.87;46.90;;;;;;;3.71;100.00;98241.81;6190863;23;20023;-88
2023/02/12 08:41:49;;;;;;;76.30;44.60;;;;;;;3.84;100.00;98235.16;6189555;23;20107;-88
2023/02/12 08:44:16;;;;;;;80.13;44.00;;;;;;;3.82;100.00;98236.97;6189935;23;20089;-87
2023/02/12 08:47:01;;;;;;;68.43;41.97;;;;;;;3.89;100.00;98243.63;6191138;23;20015;-88
2023/02/12 08:49:30;;;;;;;73.83;42.03;;;;;;;3.96;100.00;98241.59;6217699;23;20444;-88
2023/02/12 08:52:01;;;;;;;73.80;40.70;;;;;;;3.90;100.00;98245.28;6192070;23;20070;-90
2023/02/12 08:54:29;;;;;;;71.63;42.57;;;;;;;4.11;100.00;98237.44;6192406;23;20016;-88
2023/02/12 08:56:56;;;;;;;78.10;42.73;;;;;;;4.11;100.00;98237.44;6192520;23;20022;-88
2023/02/12 08:59:23;;;;;;;74.80;43.77;;;;;;;4.29;100.00;98233.97;6193418;23;20090;-89
2023/02/12 09:01:51;;;;;;;81.30;45.80;;;;;;;4.27;100.00;98237.56;6192391;23;20008;-88
2023/02/12 09:04:22;;;;;;;69.03;40.63;;;;;;;4.33;100.00;98232.94;6191015;23;20064;-88
2023/02/12 09:06:49;;;;;;;76.03;41.53;;;;;;;4.37;100.00;98238.84;6192064;23;20098;-88
2023/02/12 09:09:16;;;;;;;69.67;41.10;;;;;;;4.25;100.00;98237.63;6194658;23;20008;-87
2023/02/12 09:11:43;;;;;;;73.73;41.50;;;;;;;4.37;100.00;98237.06;6190910;23;20020;-88
2023/02/12 09:14:14;;;;;;;70.83;41.27;;;;;;;4.36;100.00;98235.38;6194980;23;20585;-88
2023/02/12 09:16:46;;;;;;;70.27;39.60;;;;;;;4.51;100.00;98228.59;6193206;23;20016;-88
2023/02/12 09:19:21;;;;;;;65.70;38.40;;;;;;;4.47;100.00;98233.13;6193500;23;20012;-88
2023/02/12 09:21:54;;;;;;;66.63;39.13;;;;;;;4.54;100.00;98225.03;6191995;23;20309;-88
2023/02/12 09:24:26;;;;;;;63.70;37.60;;;;;;;4.67;100.00;98228.72;6192539;23;20020;-87
2023/02/12 09:26:54;;;;;;;60.77;38.07;;;;;;;4.81;100.00;98235.88;6192601;23;20019;-87
2023/02/12 09:29:23;;;;;;;62.03;35.73;;;;;;;5.03;100.00;98233.03;6193383;23;20083;-88
2023/02/12 09:31:50;;;;;;;62.67;37.00;;;;;;;5.05;100.00;98226.00;6194431;23;20016;-88
2023/02/12 09:34:17;;;;;;;58.70;36.10;;;;;;;5.08;100.00;98225.84;6196222;23;20008;-88
2023/02/12 09:44:07;;;;;;;48.90;28.73;;;;;;;5.49;100.00;98222.91;6246627;23;20110;-88
2023/02/12 09:47:00;;;;;;;51.97;31.90;;;;;;;5.56;100.00;98222.50;6193578;22;19992;-90
2023/02/12 09:49:46;;;;;;;37.63;22.23;;;;;;;5.57;100.00;98219.00;6237322;22;20107;-88
2023/02/12 09:52:16;;;;;;;50.87;29.97;;;;;;;5.70;100.00;98214.00;6200158;23;20036;-88
2023/02/12 09:54:44;;;;;;;87.23;57.13;;;;;;;5.64;100.00;98219.53;6204169;23;20528;-88
2023/02/12 09:57:22;;;;;;;59.37;35.47;;;;;;;5.63;100.00;98220.44;6200897;23;20014;-88
2023/02/12 10:00:03;;;;;;;40.80;22.57;;;;;;;5.57;100.00;98215.56;6201198;23;20035;-86
2023/02/12 10:02:35;;;;;;;22.97;11.90;;;;;;;5.67;100.00;98216.75;6216018;23;20050;-87
2023/02/12 10:05:13;;;;;;;16.70;9.50;;;;;;;5.74;100.00;98219.91;6190656;23;20020;-88
2023/02/12 10:08:36;;;;;;;22.70;12.23;;;;;;;5.59;100.00;98216.28;6216656;23;20012;-88
2023/02/12 10:11:32;;;;;;;7.63;3.80;;;;;;;5.63;100.00;98220.44;6043681;23;20014;-88
2023/02/12 10:14:07;;;;;;;8.47;4.33;;;;;;;5.67;100.00;98219.38;6148704;23;20012;-88
2023/02/12 10:17:00;;;;;;;8.57;3.70;;;;;;;5.73;100.00;98220.78;6199063;23;20443;-88
2023/02/12 10:20:16;;;;;;;7.37;3.70;;;;;;;5.48;100.00;98216.84;6215607;23;20066;-88
2023/02/12 10:23:10;;;;;;;5.90;2.77;;;;;;;5.61;100.00;98224.91;6190706;23;20103;-89
2023/02/12 10:26:10;;;;;;;4.63;2.27;;;;;;;5.63;100.00;98225.66;6191626;23;20012;-87
2023/02/12 10:28:48;;;;;;;5.30;2.33;;;;;;;5.73;100.00;98229.47;6215242;23;20019;-88
2023/02/12 10:31:37;;;;;;;5.40;2.27;;;;;;;5.74;100.00;98228.56;6216588;23;20022;-89
2023/02/12 10:34:24;;;;;;;15.00;7.70;;;;;;;5.78;100.00;98227.47;6215980;23;20100;-88
2023/02/12 10:36:55;;;;;;;18.57;10.13;;;;;;;6.00;100.00;98221.13;6217026;23;20008;-90
2023/02/12 10:39:40;;;;;;;19.87;11.47;;;;;;;5.84;100.00;98231.53;6191285;23;20012;-89
2023/02/12 10:42:28;;;;;;;7.83;3.80;;;;;;;5.76;100.00;98228.47;6191664;23;20069;-91
2023/02/12 10:45:24;;;;;;;6.10;2.70;;;;;;;5.65;100.00;98229.03;6216962;23;20016;-90
2023/02/12 10:48:03;;;;;;;13.13;5.50;;;;;;;5.76;100.00;98221.47;6215268;23;20008;-88
2023/02/12 10:50:50;;;;;;;12.40;5.90;;;;;;;5.78;100.00;98216.19;6190065;23;20031;-88
2023/02/12 10:56:30;;;;;;;3.67;1.63;;;;;;;5.81;100.00;98218.66;6215538;23;20454;-88
2023/02/12 10:58:59;;;;;;;7.70;3.90;;;;;;;5.91;100.00;98219.84;6214854;23;20018;-89
2023/02/12 11:01:38;;;;;;;5.50;2.53;;;;;;;5.87;100.00;98219.16;6189724;23;20003;-88
2023/02/12 11:04:22;;;;;;;5.73;2.63;;;;;;;5.97;100.00;98216.06;6191131;23;20022;-88
2023/02/12 11:07:08;;;;;;;5.47;2.37;;;;;;;6.02;100.00;98207.06;6188498;23;20066;-88
2023/02/12 11:09:44;;;;;;;7.63;3.83;;;;;;;6.11;100.00;98205.75;6216910;23;20097;-88
2023/02/12 11:12:37;;;;;;;14.70;7.27;;;;;;;5.80;100.00;98203.88;6191109;23;20448;-88
2023/02/12 11:15:32;;;;;;;10.27;4.72;;;;;;;5.97;100.00;98200.41;6192954;23;20016;-89
2023/02/12 11:18:19;;;;;;;10.07;4.60;;;;;;;6.18;100.00;98196.66;6192745;23;20021;-89
2023/02/12 11:20:54;;;;;;;9.93;4.33;;;;;;;6.09;100.00;98199.75;6223893;22;19996;-90
2023/02/12 11:23:28;;;;;;;7.77;3.77;;;;;;;6.21;100.00;98201.72;6242616;22;20020;-92
2023/02/12 11:26:13;;;;;;;7.60;3.30;;;;;;;6.21;100.00;98196.47;6240062;22;20024;-89
2023/02/12 11:29:00;;;;;;;6.93;3.60;;;;;;;6.42;100.00;98185.78;6192910;23;20016;-88
2023/02/12 11:31:32;;;;;;;6.40;3.23;;;;;;;6.30;100.00;98185.50;6194050;23;20016;-88
2023/02/12 11:34:22;;;;;;;9.07;4.50;;;;;;;6.36;100.00;98189.56;6219995;23;20023;-90
2023/02/12 11:36:51;;;;;;;8.60;4.63;;;;;;;6.30;100.00;98195.13;6244206;22;20043;-93
2023/02/12 11:39:32;;;;;;;7.47;3.80;;;;;;;6.28;100.00;98202.22;6210158;23;20020;-90
2023/02/12 11:42:42;;;;;;;7.53;3.67;;;;;;;6.41;100.00;98189.31;6218182;23;20024;-89
2023/02/12 11:45:17;;;;;;;7.87;4.30;;;;;;;6.49;100.00;98194.94;6192078;23;20494;-89
2023/02/12 11:47:45;;;;;;;7.37;4.07;;;;;;;6.50;100.00;98180.94;6192552;23;20162;-89
2023/02/12 11:50:24;;;;;;;7.97;3.93;;;;;;;6.60;100.00;98185.56;6192221;23;20012;-89
2023/02/12 11:52:52;;;;;;;10.47;5.13;;;;;;;6.43;100.00;98183.06;6198204;23;20083;-89
2023/02/12 11:55:24;;;;;;;9.83;5.10;;;;;;;6.47;100.00;98181.13;6196410;23;20008;-89
2023/02/12 11:57:53;;;;;;;11.90;5.53;;;;;;;6.50;100.00;98178.31;6222814;23;20008;-89
2023/02/12 12:00:22;;;;;;;10.67;6.23;;;;;;;6.55;100.00;98181.53;6193985;23;20012;-90
2023/02/12 12:03:15;;;;;;;10.10;5.23;;;;;;;6.47;100.00;98183.72;6220837;23;20047;-89
2023/02/12 12:06:21;;;;;;;9.47;5.40;;;;;;;6.57;100.00;98190.13;6200652;23;20012;-89
2023/02/12 12:08:52;;;;;;;9.70;5.30;;;;;;;6.57;100.00;98177.91;6184040;23;20020;-89